createdAt,value
2019-02-27T16:46:45.843Z,59.53
2019-02-27T16:49:37.825Z,63.43
2019-02-27T16:52:30.335Z,65.63
2019-02-27T16:55:23.746Z,60.50
2019-02-27T16:58:15.411Z,64.30
2019-02-27T17:01:08.517Z,60.37
2019-02-27T17:04:00.582Z,61.63
2019-02-27T17:06:52.797Z,77.50
2019-02-27T17:09:44.674Z,70.63
2019-02-27T17:12:38.270Z,73.20
2019-02-27T17:15:34.529Z,56.63
2019-02-27T17:18:28.059Z,59.37
2019-02-27T17:21:16.576Z,53.87
2019-02-27T17:24:08.311Z,59.33
2019-02-27T17:27:00.019Z,70.60
2019-02-27T17:29:52.317Z,62.13
2019-02-27T17:32:43.969Z,56.23
2019-02-27T17:35:35.789Z,66.43
2019-02-27T17:38:27.281Z,64.13
2019-02-27T17:41:18.845Z,65.30
2019-02-27T17:44:10.452Z,63.40
2019-02-27T17:47:02.083Z,64.10
2019-02-27T17:49:57.466Z,60.03
2019-02-27T17:52:48.943Z,66.13
2019-02-27T17:55:41.680Z,76.33
2019-02-27T17:58:34.995Z,80.40
2019-02-27T18:01:26.413Z,77.73
2019-02-27T18:04:18.012Z,71.47
2019-02-27T18:07:09.900Z,92.37
2019-02-27T18:10:02.348Z,78.97
2019-02-27T18:12:53.906Z,73.03
2019-02-27T18:15:45.214Z,74.73
2019-02-27T18:18:36.715Z,74.63
2019-02-27T18:21:33.189Z,75.07
2019-02-27T18:24:21.596Z,83.83
2019-02-27T18:27:12.909Z,95.00
2019-02-27T18:30:06.406Z,95.53
2019-02-27T18:33:01.112Z,83.57
2019-02-27T18:35:54.564Z,73.90
2019-02-27T18:38:46.541Z,73.97
2019-02-27T18:41:39.774Z,77.70
2019-02-27T18:44:32.653Z,92.73
2019-02-27T18:47:24.000Z,80.93
2019-02-27T18:50:15.690Z,81.63
2019-02-27T18:53:07.572Z,66.83
2019-02-27T18:56:02.030Z,74.90
2019-02-27T18:58:55.308Z,76.53
2019-02-27T19:01:46.090Z,75.33
2019-02-27T19:04:37.851Z,71.40
2019-02-27T19:07:29.356Z,75.30
2019-02-27T19:10:21.105Z,76.10
2019-02-27T19:13:12.764Z,86.50
2019-02-27T19:16:04.341Z,87.47
2019-02-27T19:18:56.088Z,79.43
2019-02-27T19:21:47.656Z,82.50
2019-02-27T19:24:39.284Z,78.87
2019-02-27T19:27:30.792Z,74.73
2019-02-27T19:30:22.546Z,77.80
2019-02-27T19:33:14.879Z,65.83
2019-02-27T19:36:06.613Z,70.53
2019-02-27T19:38:58.055Z,73.80
2019-02-27T19:41:49.869Z,74.30
2019-02-27T19:44:42.056Z,88.87
2019-02-27T19:47:33.684Z,100.50
2019-02-27T19:50:26.279Z,78.30
2019-02-27T19:53:17.617Z,73.30
2019-02-27T19:56:09.787Z,83.03
2019-02-27T19:59:01.323Z,71.80
2019-02-27T20:01:52.755Z,80.33
2019-02-27T20:04:46.003Z,72.27
2019-02-27T20:07:37.602Z,75.43
2019-02-27T20:10:32.235Z,64.43
2019-02-27T20:13:24.657Z,96.47
2019-02-27T20:16:17.729Z,93.80
2019-02-27T20:19:08.916Z,72.83
2019-02-27T20:22:00.201Z,76.80
2019-02-27T20:24:52.952Z,70.43
2019-02-27T20:27:44.356Z,89.80
2019-02-27T20:30:36.123Z,88.20
2019-02-27T20:33:28.466Z,73.00
2019-02-27T20:36:19.760Z,81.83
2019-02-27T20:39:11.327Z,87.40
2019-02-27T20:42:02.464Z,82.63
2019-02-27T20:44:54.189Z,112.83
2019-02-27T20:47:46.501Z,111.67
2019-02-27T20:50:41.885Z,94.70
2019-02-27T20:53:33.983Z,102.50
2019-02-27T20:56:25.728Z,98.30
2019-02-27T20:59:17.294Z,79.23
2019-02-27T21:02:08.586Z,83.87
2019-02-27T21:05:00.611Z,91.50
2019-02-27T21:07:53.522Z,85.20
2019-02-27T21:10:46.619Z,93.87
2019-02-27T21:13:38.213Z,92.37
2019-02-27T21:16:29.635Z,93.63
2019-02-27T21:19:20.961Z,96.10
2019-02-27T21:22:12.373Z,91.23
2019-02-27T21:25:03.774Z,80.60
2019-02-27T21:27:55.475Z,95.93
2019-02-27T21:30:51.913Z,85.73
2019-02-27T21:33:42.504Z,86.27
2019-02-27T21:36:36.791Z,77.00
2019-02-27T21:39:28.380Z,84.07
